createdAt,value
2022-09-05T00:00:11.632Z,101334.56
2022-09-05T00:02:49.209Z,101340.31
2022-09-05T00:05:28.196Z,101339.78
2022-09-05T00:08:09.887Z,101344.03
2022-09-05T00:11:41.573Z,101342.50
2022-09-05T00:14:13.755Z,101338.69
2022-09-05T00:16:57.782Z,101342.44
2022-09-05T00:23:26.965Z,101338.19
2022-09-05T00:24:31.030Z,101343.88
2022-09-05T00:26:02.554Z,101348.91
2022-09-05T00:29:03.098Z,101344.06
2022-09-05T00:31:54.274Z,101347.03
2022-09-05T00:34:47.447Z,101347.13
2022-09-05T00:37:27.965Z,101345.59
2022-09-05T00:40:18.649Z,101341.97
2022-09-05T00:42:50.361Z,101347.31
2022-09-05T00:45:27.912Z,101349.72
2022-09-05T00:47:59.998Z,101350.44
2022-09-05T00:51:14.154Z,101338.50
2022-09-05T00:53:56.929Z,101353.28
2022-09-05T00:56:58.129Z,101349.28
2022-09-05T00:59:43.436Z,101349.16
2022-09-05T01:02:32.114Z,101357.16
2022-09-05T01:05:43.438Z,101359.47
2022-09-05T01:08:37.011Z,101352.97
2022-09-05T01:11:20.021Z,101354.69
2022-09-05T01:14:23.892Z,101359.50
2022-09-05T01:17:22.429Z,101362.09
2022-09-05T01:20:31.298Z,101362.28
2022-09-05T01:23:18.024Z,101350.09
2022-09-05T01:25:56.928Z,101357.16
2022-09-05T01:29:14.054Z,101358.44
2022-09-05T01:31:36.153Z,101354.06
2022-09-05T01:34:24.893Z,101347.78
2022-09-05T01:37:24.799Z,101352.38
2022-09-05T01:40:16.144Z,101344.28
2022-09-05T01:43:05.260Z,101338.38
2022-09-05T01:46:04.276Z,101338.16
2022-09-05T01:48:56.852Z,101342.16
2022-09-05T01:51:41.044Z,101346.03
2022-09-05T01:54:31.013Z,101350.09
2022-09-05T01:57:14.790Z,101347.97
2022-09-05T01:59:46.280Z,101345.41
2022-09-05T02:02:50.314Z,101345.50
2022-09-05T02:05:55.984Z,101348.75
2022-09-05T02:09:01.497Z,101345.19
2022-09-05T02:11:39.116Z,101351.28
2022-09-05T02:14:34.259Z,101354.94
2022-09-05T02:17:23.627Z,101354.69
2022-09-05T02:20:23.499Z,101358.88
2022-09-05T02:22:53.656Z,101355.31
2022-09-05T02:26:01.745Z,101350.56
2022-09-05T02:28:56.105Z,101349.50
2022-09-05T02:31:42.395Z,101355.00
2022-09-05T02:34:51.015Z,101348.94
2022-09-05T02:38:33.113Z,101349.94
2022-09-05T02:45:15.328Z,101352.44
2022-09-05T02:45:19.572Z,101349.16
2022-09-05T02:46:46.763Z,101347.44
2022-09-05T02:50:58.217Z,101344.97
2022-09-05T02:57:29.484Z,101333.88
2022-09-05T02:57:34.204Z,101329.28
2022-09-05T02:59:06.054Z,101327.72
2022-09-05T03:01:32.852Z,101335.56
2022-09-05T03:04:14.644Z,101339.59
2022-09-05T03:06:41.303Z,101334.44
2022-09-05T03:09:29.629Z,101323.16
2022-09-05T03:12:28.890Z,101326.78
2022-09-05T03:15:22.573Z,101330.38
2022-09-05T03:18:20.915Z,101332.09
2022-09-05T03:21:39.676Z,101334.56
2022-09-05T03:24:26.599Z,101335.16
2022-09-05T03:27:26.764Z,101322.91
2022-09-05T03:30:05.625Z,101327.03
2022-09-05T03:32:48.949Z,101335.16
2022-09-05T03:35:48.234Z,101332.72
2022-09-05T03:38:21.291Z,101333.47
2022-09-05T03:41:12.601Z,101334.84
2022-09-05T03:43:45.161Z,101335.97
2022-09-05T03:46:39.384Z,101338.63
2022-09-05T03:51:04.995Z,101340.66
2022-09-05T03:57:08.006Z,101338.09
2022-09-05T03:57:19.763Z,101334.81
2022-09-05T03:58:56.278Z,101340.34
2022-09-05T04:03:35.837Z,101344.88
2022-09-05T04:08:11.497Z,101335.88
2022-09-05T04:08:33.102Z,101354.13
2022-09-05T04:11:06.935Z,101344.16
2022-09-05T04:14:02.668Z,101346.38
2022-09-05T04:16:42.523Z,101347.34
2022-09-05T04:19:20.992Z,101356.69
2022-09-05T04:22:03.108Z,101360.13
2022-09-05T04:24:53.924Z,101358.06
2022-09-05T04:27:24.391Z,101363.28
2022-09-05T04:29:59.184Z,101373.50
2022-09-05T04:32:54.884Z,101364.56
2022-09-05T04:35:40.325Z,101368.50
2022-09-05T04:38:38.680Z,101365.34
2022-09-05T04:41:18.628Z,101372.41
2022-09-05T04:43:55.352Z,101378.69
2022-09-05T04:46:28.824Z,101379.53
2022-09-05T04:48:58.492Z,101386.38
2022-09-05T04:52:04.821Z,101384.63
2022-09-05T04:54:44.849Z,101384.72
2022-09-05T04:57:15.735Z,101388.97
2022-09-05T05:05:30.463Z,101385.97
2022-09-05T05:06:00.708Z,101391.91
2022-09-05T05:06:16.463Z,101392.78
2022-09-05T05:08:49.451Z,101392.78
2022-09-05T05:17:58.148Z,101399.16
2022-09-05T05:18:08.141Z,101398.13
2022-09-05T05:18:12.786Z,101408.28
2022-09-05T05:20:41.830Z,101417.63
2022-09-05T05:23:18.659Z,101420.63
2022-09-05T05:25:55.702Z,101417.44
2022-09-05T05:28:28.943Z,101422.31
2022-09-05T05:31:01.430Z,101413.56
2022-09-05T05:33:35.556Z,101414.19
2022-09-05T05:36:06.633Z,101411.94
2022-09-05T05:38:50.279Z,101413.63
2022-09-05T05:41:27.062Z,101412.94
2022-09-05T05:43:54.049Z,101423.88
2022-09-05T05:46:31.007Z,101422.50
2022-09-05T05:49:15.228Z,101429.94
2022-09-05T05:52:02.044Z,101417.63
2022-09-05T05:54:38.628Z,101420.19
2022-09-05T05:57:43.400Z,101421.91
2022-09-05T06:00:15.006Z,101424.03
2022-09-05T06:03:26.405Z,101426.72
2022-09-05T06:06:15.124Z,101427.25
2022-09-05T06:12:06.935Z,101424.31
2022-09-05T06:14:50.041Z,101427.16
2022-09-05T06:15:34.019Z,101426.03
2022-09-05T06:18:10.088Z,101419.00
2022-09-05T06:22:08.745Z,101419.94
2022-09-05T06:24:13.444Z,101414.72
2022-09-05T06:27:05.352Z,101420.91
2022-09-05T06:29:38.634Z,101419.59
2022-09-05T06:32:25.168Z,101417.84
2022-09-05T06:35:22.378Z,101416.44
2022-09-05T06:38:13.581Z,101416.50
2022-09-05T06:40:40.220Z,101420.72
2022-09-05T06:43:17.862Z,101418.72
2022-09-05T06:46:52.884Z,101420.84
2022-09-05T06:49:28.986Z,101424.34
2022-09-05T06:52:27.966Z,101427.72
2022-09-05T06:55:15.216Z,101426.00
2022-09-05T06:58:19.317Z,101423.97
2022-09-05T07:00:52.280Z,101427.84
2022-09-05T07:03:37.955Z,101430.53
2022-09-05T07:06:19.496Z,101431.97
2022-09-05T07:08:55.825Z,101431.63
2022-09-05T07:11:34.565Z,101434.78
2022-09-05T07:14:10.508Z,101436.16
2022-09-05T07:16:58.281Z,101434.13
2022-09-05T07:19:33.907Z,101439.72
2022-09-05T07:22:48.760Z,101438.47
2022-09-05T07:25:18.317Z,101446.41
2022-09-05T07:28:27.122Z,101448.97
2022-09-05T07:31:01.236Z,101451.75
2022-09-05T07:33:31.275Z,101447.31
2022-09-05T07:36:13.088Z,101450.25
2022-09-05T07:38:54.959Z,101451.09
2022-09-05T07:41:27.880Z,101449.84
2022-09-05T07:44:00.595Z,101447.94
2022-09-05T07:46:32.417Z,101453.09
2022-09-05T07:49:14.696Z,101442.44
2022-09-05T07:56:54.203Z,101452.88
2022-09-05T07:57:08.253Z,101446.22
2022-09-05T07:57:52.280Z,101444.41
2022-09-05T08:00:27.012Z,101445.94
2022-09-05T08:02:59.164Z,101443.38
2022-09-05T08:05:35.119Z,101441.25
2022-09-05T08:08:08.533Z,101450.47
2022-09-05T08:11:23.514Z,101442.16
2022-09-05T08:13:42.697Z,101441.00
2022-09-05T08:16:17.478Z,101438.13
2022-09-05T08:18:46.446Z,101447.84
2022-09-05T08:21:27.371Z,101441.41
2022-09-05T08:24:13.574Z,101439.81
2022-09-05T08:27:16.183Z,101447.75
2022-09-05T08:30:26.986Z,101437.50
2022-09-05T08:33:10.804Z,101439.72
2022-09-05T08:35:46.763Z,101437.78
2022-09-05T08:38:15.615Z,101432.75
2022-09-05T08:40:51.556Z,101425.78
2022-09-05T08:46:44.963Z,101431.88
2022-09-05T08:46:53.371Z,101418.59
2022-09-05T08:49:59.495Z,101422.75
2022-09-05T08:52:30.349Z,101425.47
2022-09-05T08:55:28.539Z,101427.13
2022-09-05T08:58:06.092Z,101412.91
2022-09-05T09:00:42.305Z,101421.63
2022-09-05T09:03:26.791Z,101414.38
2022-09-05T09:06:13.327Z,101414.97
2022-09-05T09:09:13.311Z,101409.25
2022-09-05T09:11:56.920Z,101411.50
2022-09-05T09:14:35.849Z,101414.78
2022-09-05T09:17:33.423Z,101412.34
2022-09-05T09:20:18.321Z,101402.84
2022-09-05T09:23:06.677Z,101397.59
2022-09-05T09:26:05.245Z,101407.63
2022-09-05T09:28:49.574Z,101395.47
2022-09-05T09:31:55.557Z,101400.97
2022-09-05T09:34:25.549Z,101402.94
2022-09-05T09:36:55.000Z,101391.84
2022-09-05T09:39:38.745Z,101396.00
2022-09-05T09:42:33.061Z,101392.13
2022-09-05T09:45:28.369Z,101396.00
2022-09-05T09:48:02.224Z,101393.00
2022-09-05T09:50:58.892Z,101380.22
2022-09-05T09:53:29.966Z,101379.63
2022-09-05T09:56:21.790Z,101379.44
2022-09-05T09:59:25.646Z,101374.53
2022-09-05T10:04:30.988Z,101374.06
2022-09-05T10:10:40.137Z,101376.72
2022-09-05T10:10:52.852Z,101364.91
2022-09-05T10:12:04.937Z,101366.69
2022-09-05T10:14:56.708Z,101360.69
2022-09-05T10:17:58.103Z,101360.97
2022-09-05T10:20:31.181Z,101367.09
2022-09-05T10:23:10.531Z,101350.97
2022-09-05T10:25:46.401Z,101356.41
2022-09-05T10:28:34.852Z,101364.69
2022-09-05T10:34:24.753Z,101356.25
2022-09-05T10:35:06.164Z,101355.66
2022-09-05T10:37:13.257Z,101358.84
2022-09-05T10:39:44.369Z,101360.25
2022-09-05T10:42:35.216Z,101346.47
2022-09-05T10:45:17.331Z,101352.25
2022-09-05T10:47:57.368Z,101355.19
2022-09-05T10:50:44.591Z,101350.53
2022-09-05T10:53:39.429Z,101338.28
2022-09-05T10:56:21.555Z,101346.84
2022-09-05T11:01:48.593Z,101344.81
2022-09-05T11:02:24.379Z,101340.94
2022-09-05T11:05:19.922Z,101328.34
2022-09-05T11:08:11.219Z,101326.31
2022-09-05T11:10:44.187Z,101327.03
2022-09-05T11:13:10.826Z,101325.56
2022-09-05T11:15:57.248Z,101313.63
2022-09-05T11:22:22.993Z,101316.63
2022-09-05T11:25:03.740Z,101310.34
2022-09-05T11:27:47.365Z,101307.72
2022-09-05T11:30:29.938Z,101310.94
2022-09-05T11:39:49.150Z,101300.63
2022-09-05T11:39:54.161Z,101296.91
2022-09-05T11:40:06.075Z,101300.88
2022-09-05T11:42:32.107Z,101293.50
2022-09-05T11:45:42.283Z,101297.13
2022-09-05T11:48:34.730Z,101295.03
2022-09-05T11:51:33.934Z,101287.94
2022-09-05T11:54:07.018Z,101292.50
2022-09-05T11:57:33.248Z,101288.41
2022-09-05T12:00:33.869Z,101290.88
2022-09-05T12:03:58.261Z,101283.34
2022-09-05T12:06:37.679Z,101280.59
2022-09-05T12:09:42.784Z,101285.09
2022-09-05T12:12:41.055Z,101280.56
2022-09-05T12:15:33.979Z,101283.13
2022-09-05T12:18:25.730Z,101281.84
2022-09-05T12:21:02.738Z,101281.94
2022-09-05T12:25:16.672Z,101274.59
2022-09-05T12:27:36.882Z,101279.91
2022-09-05T12:30:03.799Z,101280.84
2022-09-05T12:36:01.445Z,101272.69
2022-09-05T12:36:11.324Z,101272.22
2022-09-05T12:40:44.838Z,101266.00
2022-09-05T12:41:43.994Z,101263.78
2022-09-05T12:44:42.469Z,101261.69
2022-09-05T12:47:18.973Z,101248.09
2022-09-05T12:50:15.685Z,101253.84
2022-09-05T12:52:46.729Z,101247.06
2022-09-05T12:55:34.732Z,101248.41
2022-09-05T13:02:57.757Z,101247.06
2022-09-05T13:03:09.274Z,101246.56
2022-09-05T13:04:20.120Z,101247.25
2022-09-05T13:06:56.239Z,101243.94
2022-09-05T13:11:46.201Z,101241.88
2022-09-05T13:14:59.081Z,101230.69
2022-09-05T13:15:23.163Z,101232.53
2022-09-05T13:18:08.571Z,101229.75
2022-09-05T13:20:51.658Z,101232.50
2022-09-05T13:23:24.467Z,101232.13
2022-09-05T13:25:58.007Z,101232.09
2022-09-05T13:37:59.279Z,101229.38
2022-09-05T13:38:05.802Z,101219.13
2022-09-05T13:38:29.378Z,101214.28
2022-09-05T13:40:49.690Z,101213.75
2022-09-05T13:43:26.560Z,101215.03
2022-09-05T13:46:10.983Z,101221.28
2022-09-05T13:51:53.955Z,101206.63
2022-09-05T13:54:36.620Z,101199.13
2022-09-05T13:57:16.399Z,101195.84
2022-09-05T14:00:27.761Z,101202.56
2022-09-05T14:03:45.000Z,101197.69
2022-09-05T14:06:47.640Z,101194.56
2022-09-05T14:09:38.711Z,101189.44
2022-09-05T14:12:29.704Z,101186.50
2022-09-05T14:15:10.145Z,101182.81
2022-09-05T14:17:58.558Z,101189.66
2022-09-05T14:20:49.865Z,101184.91
2022-09-05T14:23:21.244Z,101180.72
2022-09-05T14:25:55.046Z,101176.81
2022-09-05T14:28:31.660Z,101185.72
2022-09-05T14:37:40.128Z,101180.38
2022-09-05T14:37:46.177Z,101181.75
2022-09-05T14:37:58.426Z,101172.97
2022-09-05T14:41:03.611Z,101180.91
2022-09-05T14:43:41.818Z,101178.41
2022-09-05T14:46:24.260Z,101169.88
2022-09-05T14:49:02.013Z,101166.94
2022-09-05T14:51:43.200Z,101155.69
2022-09-05T15:02:40.919Z,101163.38
2022-09-05T15:02:53.586Z,101160.34
2022-09-05T15:03:04.304Z,101157.84
2022-09-05T15:05:35.810Z,101158.91
2022-09-05T15:08:12.484Z,101157.50
2022-09-05T15:12:18.373Z,101157.22
2022-09-05T15:13:51.992Z,101165.59
2022-09-05T15:16:22.548Z,101158.50
2022-09-05T15:18:50.781Z,101153.66
2022-09-05T15:21:33.155Z,101160.59
2022-09-05T15:24:19.183Z,101151.28
2022-09-05T15:26:54.016Z,101155.03
2022-09-05T15:29:27.573Z,101154.31
2022-09-05T15:32:11.332Z,101159.31
2022-09-05T15:34:39.327Z,101161.72
2022-09-05T15:37:31.034Z,101162.44
2022-09-05T15:40:22.858Z,101168.88
2022-09-05T15:43:02.278Z,101165.06
2022-09-05T15:45:35.349Z,101169.84
2022-09-05T15:48:12.585Z,101167.09
2022-09-05T15:50:46.889Z,101163.84
2022-09-05T15:53:24.691Z,101160.31
2022-09-05T15:55:56.225Z,101167.28
2022-09-05T15:58:35.957Z,101163.84
2022-09-05T16:01:30.584Z,101164.47
2022-09-05T16:07:28.084Z,101160.97
2022-09-05T16:10:38.259Z,101167.28
2022-09-05T16:10:45.711Z,101166.63
2022-09-05T16:12:44.802Z,101160.47
2022-09-05T16:21:36.976Z,101151.31
2022-09-05T16:23:21.114Z,101148.75
2022-09-05T16:23:26.555Z,101152.69
2022-09-05T16:23:53.308Z,101152.72
2022-09-05T16:26:29.755Z,101152.06
2022-09-05T16:29:01.734Z,101151.75
2022-09-05T16:31:51.201Z,101160.03
2022-09-05T16:34:28.639Z,101149.72
2022-09-05T16:37:08.205Z,101150.31
2022-09-05T16:39:40.332Z,101161.50
2022-09-05T16:42:17.643Z,101156.78
2022-09-05T16:44:54.602Z,101160.00
2022-09-05T16:47:36.843Z,101156.53
2022-09-05T16:50:18.453Z,101156.06
2022-09-05T16:52:53.641Z,101151.56
2022-09-05T16:55:47.856Z,101155.28
2022-09-05T16:58:23.497Z,101147.88
2022-09-05T17:01:04.295Z,101158.53
2022-09-05T17:03:58.689Z,101149.84
2022-09-05T17:06:34.563Z,101145.97
2022-09-05T17:09:13.498Z,101152.59
2022-09-05T17:11:55.916Z,101154.16
2022-09-05T17:14:34.172Z,101158.59
2022-09-05T17:17:43.968Z,101161.31
2022-09-05T17:20:07.289Z,101153.03
2022-09-05T17:27:31.828Z,101161.75
2022-09-05T17:29:24.829Z,101151.31
2022-09-05T17:29:34.486Z,101159.94
2022-09-05T17:31:55.737Z,101154.00
2022-09-05T17:34:47.447Z,101157.13
2022-09-05T17:37:41.960Z,101154.59
2022-09-05T17:40:33.531Z,101147.50
2022-09-05T17:43:09.888Z,101147.72
2022-09-05T17:45:45.312Z,101148.09
2022-09-05T17:48:17.390Z,101152.91
2022-09-05T17:50:51.269Z,101136.59
2022-09-05T17:53:26.800Z,101143.25
2022-09-05T17:55:55.118Z,101149.00
2022-09-05T17:58:30.526Z,101149.28
2022-09-05T18:01:23.856Z,101151.00
2022-09-05T18:03:54.436Z,101155.84
2022-09-05T18:06:37.880Z,101155.84
2022-09-05T18:09:31.095Z,101165.78
2022-09-05T18:12:31.584Z,101160.53
2022-09-05T18:15:25.552Z,101164.91
2022-09-05T18:17:53.106Z,101175.50
2022-09-05T18:20:33.284Z,101171.75
2022-09-05T18:26:21.316Z,101176.31
2022-09-05T18:29:05.940Z,101177.16
2022-09-05T18:31:41.972Z,101182.00
2022-09-05T18:34:15.418Z,101179.75
2022-09-05T18:36:44.446Z,101188.28
2022-09-05T18:39:24.535Z,101190.25
2022-09-05T18:42:34.095Z,101186.16
2022-09-05T18:45:15.540Z,101192.13
2022-09-05T18:47:57.358Z,101187.56
2022-09-05T18:50:32.408Z,101189.13
2022-09-05T18:53:10.521Z,101187.16
2022-09-05T18:56:09.571Z,101190.66
2022-09-05T18:58:51.605Z,101187.66
2022-09-05T19:01:54.318Z,101193.44
2022-09-05T19:04:39.017Z,101188.56
2022-09-05T19:07:17.394Z,101188.72
2022-09-05T19:10:34.538Z,101191.50
2022-09-05T19:13:00.350Z,101193.22
2022-09-05T19:15:31.490Z,101194.50
2022-09-05T19:18:26.233Z,101198.53
2022-09-05T19:20:56.733Z,101202.31
2022-09-05T19:23:28.061Z,101205.09
2022-09-05T19:26:09.913Z,101201.84
2022-09-05T19:30:37.972Z,101212.72
2022-09-05T19:36:57.981Z,101201.56
2022-09-05T19:36:59.345Z,101213.66
2022-09-05T19:37:30.148Z,101201.38
2022-09-05T19:44:47.555Z,101207.03
2022-09-05T19:47:38.168Z,101192.81
2022-09-05T19:47:39.850Z,101202.81
2022-09-05T19:48:35.292Z,101194.44
2022-09-05T19:51:17.339Z,101189.38
2022-09-05T19:53:47.454Z,101186.94
2022-09-05T19:56:15.922Z,101187.22
2022-09-05T19:58:42.755Z,101188.22
2022-09-05T20:01:15.988Z,101183.13
2022-09-05T20:03:45.584Z,101178.84
2022-09-05T20:06:31.029Z,101179.53
2022-09-05T20:09:16.006Z,101171.16
2022-09-05T20:11:46.909Z,101162.16
2022-09-05T20:14:21.998Z,101167.53
2022-09-05T20:16:50.739Z,101172.84
2022-09-05T20:19:28.689Z,101175.66
2022-09-05T20:21:58.862Z,101177.59
2022-09-05T20:24:25.785Z,101179.31
2022-09-05T20:26:52.635Z,101182.50
2022-09-05T20:29:54.417Z,101177.09
2022-09-05T20:32:37.087Z,101183.34
2022-09-05T20:39:26.564Z,101182.25
2022-09-05T20:43:23.029Z,101169.88
2022-09-05T20:43:26.644Z,101177.13
2022-09-05T20:43:52.372Z,101164.75
2022-09-05T20:49:30.101Z,101167.31
2022-09-05T20:54:06.710Z,101166.84
2022-09-05T20:54:23.436Z,101164.41
2022-09-05T20:55:39.917Z,101161.44
2022-09-05T20:58:15.646Z,101163.91
2022-09-05T21:01:19.709Z,101149.44
2022-09-05T21:03:45.293Z,101152.16
2022-09-05T21:06:26.138Z,101152.16
2022-09-05T21:08:56.048Z,101156.31
2022-09-05T21:11:31.383Z,101162.81
2022-09-05T21:14:02.584Z,101151.53
2022-09-05T21:16:33.647Z,101154.25
2022-09-05T21:19:00.417Z,101159.00
2022-09-05T21:21:30.284Z,101156.78
2022-09-05T21:24:18.009Z,101159.72
2022-09-05T21:26:49.617Z,101171.22
2022-09-05T21:29:27.401Z,101171.38
2022-09-05T21:32:01.778Z,101171.75
2022-09-05T21:34:31.070Z,101176.63
2022-09-05T21:37:07.644Z,101171.22
2022-09-05T21:39:42.946Z,101171.69
2022-09-05T21:44:07.352Z,101167.09
2022-09-05T21:47:35.905Z,101175.19
2022-09-05T21:48:06.271Z,101167.09
2022-09-05T21:50:39.040Z,101169.53
2022-09-05T21:53:51.033Z,101163.41
2022-09-05T21:59:24.360Z,101159.00
2022-09-05T21:59:25.105Z,101157.75
2022-09-05T22:01:51.431Z,101153.38
2022-09-05T22:04:17.606Z,101153.38
2022-09-05T22:06:48.510Z,101163.16
2022-09-05T22:09:21.115Z,101163.66
2022-09-05T22:11:51.562Z,101171.72
2022-09-05T22:14:20.787Z,101171.97
2022-09-05T22:16:50.422Z,101168.31
2022-09-05T22:19:23.199Z,101158.28
2022-09-05T22:21:57.087Z,101159.25
2022-09-05T22:24:26.041Z,101159.00
2022-09-05T22:27:11.815Z,101154.81
2022-09-05T22:29:40.447Z,101149.69
2022-09-05T22:32:07.534Z,101158.78
2022-09-05T22:34:34.338Z,101158.03
2022-09-05T22:37:01.162Z,101154.09
2022-09-05T22:39:37.044Z,101153.00
2022-09-05T22:42:10.293Z,101152.41
2022-09-05T22:44:39.161Z,101152.63
2022-09-05T22:47:07.924Z,101161.38
2022-09-05T22:49:36.430Z,101153.72
2022-09-05T22:52:08.031Z,101156.09
2022-09-05T22:54:35.938Z,101149.47
2022-09-05T22:57:04.101Z,101159.84
2022-09-05T22:59:31.515Z,101149.22
2022-09-05T23:01:58.563Z,101139.22
2022-09-05T23:04:25.934Z,101148.22
2022-09-05T23:06:52.899Z,101143.47
2022-09-05T23:09:19.663Z,101141.47
2022-09-05T23:11:46.297Z,101142.53
2022-09-05T23:14:13.033Z,101131.88
2022-09-05T23:16:39.665Z,101134.88
2022-09-05T23:19:06.389Z,101127.13
2022-09-05T23:21:34.355Z,101116.50
2022-09-05T23:24:01.082Z,101126.13
2022-09-05T23:26:27.765Z,101120.28
2022-09-05T23:28:54.505Z,101110.59
2022-09-05T23:31:21.209Z,101109.19
2022-09-05T23:33:47.946Z,101113.19
2022-09-05T23:36:15.068Z,101103.31
2022-09-05T23:38:42.498Z,101109.28
2022-09-05T23:41:12.073Z,101097.78
2022-09-05T23:43:38.854Z,101105.94
2022-09-05T23:46:05.777Z,101106.06
2022-09-05T23:48:32.910Z,101098.34
2022-09-05T23:51:11.301Z,101091.03
2022-09-05T23:53:38.998Z,101109.91
2022-09-05T23:56:08.296Z,101105.72
2022-09-05T23:58:36.275Z,101112.84
